LFSTEDMA

Guest
Details From LFST - Entzheim
To EDMA - Augsburg
Flight Number -
Tags generated
Created
Modified
Stats Distance 132 nm / 244 km
Max Altitude 13,800 ft / 4,206 m
Waypoints 3
Social Downloads 0
Likes 0
Share VATSIM

Download

Looking for another format? Having issues loading an existing format? Contact us
Advertisement - Login to hide

Notes

Basic altitude profile: - Ascent Rate: 2500ft/min - Ascent Speed: 250kts - Cruise Altitude: 35000ft - Cruise Speed: 420kts - Descent Rate: 1500ft/min - Descent Speed: 250kts

Route

LFST ROTWE EDMA

ID Type Via Altitude Latitude Longitude Leg Dist Tot Dist Heading (true) Name
O LFST APT - 0 ft / 0 m 48.53833˚ 7.62826˚ - 0 nm - Entzheim
ROTWE FIX - 13,800 ft / 4,206 m 48.51328˚ 8.67461˚ 41 nm 41 nm 92° / 92° -
O EDMA APT - 0 ft / 0 m 48.42424˚ 10.93428˚ 90 nm 131 nm 93° / 94° Augsburg

Altitude Profile

Advertisement - Login to hide

LFST

Details ICAO LFST (SXB)
Name Entzheim
Region France
Timezone Europe/Paris (UTC+1.0)
Stats Elevation 504 ft / 154 m (AMSL)
Location 48.538335° 7.628265°
Runways 1
Magnetic Variation 2.105° E

METAR

LFST 180900Z AUTO 16006KT 9999 -SNRA SCT007 BKN017 OVC027 01/00 Q1020 TEMPO BKN006 OVC025

Decode

TAF

TAF AMD LFST 180709Z 1807/1906 18011KT 8000 BKN006 OVC025 TEMPO 1807/1809 3000 -SN OVC004 BECMG 1810/1813 VRB03KT SCT010 BKN020 BECMG 1817/1820 4000 BR OVC005 PROB30 TEMPO 1821/1906 0800 BCFG

Decode

Departure Runways

ID Width Length Bearing (true) Bearing (mag) Surface Threshold Offset Overrun Length
05 148 ft / 45 m 7,899 ft / 2,408 m 48.60° 46.49° Asphalt 0 ft / 0 m 860 ft / 262 m
23 148 ft / 45 m 7,899 ft / 2,408 m 228.62° 226.51° Asphalt 0 ft / 0 m 902 ft / 275 m

EDMA

Details ICAO EDMA (AGB)
Name Augsburg
Region Germany - Civil
Timezone Europe/Berlin (UTC+1.0)
Stats Elevation 1,515 ft / 462 m (AMSL)
Location 48.424245° 10.934277°
Runways 2
Magnetic Variation 2.955° E

METAR

EDMA 180850Z 13004KT 9999 -SN FEW032 BKN037 M01/M04 Q1022

Decode

TAF

Not found

Destination Runways

ID Width Length Bearing (true) Bearing (mag) Surface Threshold Offset Overrun Length
07 98 ft / 30 m 4,186 ft / 1,276 m 71.38° 68.42° Asphalt 0 ft / 0 m 164 ft / 50 m
07L 100 ft / 30 m 3,320 ft / 1,012 m 71.47° 68.51° Grass 0 ft / 0 m 0 ft / 0 m
25 98 ft / 30 m 4,186 ft / 1,276 m 251.39° 248.43° Asphalt 0 ft / 0 m 164 ft / 50 m
25R 100 ft / 30 m 3,320 ft / 1,012 m 251.48° 248.52° Grass 0 ft / 0 m 0 ft / 0 m

Approach Navaids

Runway Type Ident Frequency Range Bearing (true) Bearing (mag) Slope Elevation
25 Localiser AUG 108.50 MHz 18 nm / 33 km 251.39° 248.43° - 1,510 ft / 460 m (AMSL)
25 Glidescope AUG 108.50 MHz 10 nm / 19 km 251.39° 248.43° 3.50° 1,515 ft / 462 m (AMSL)